Time;durP1;ratioP1;P1;durP2;ratioP2;P2;SDS_P1;SDS_P2;PMS_P1;PMS_P2;Temp;Humidity;BMP_temperature;BMP_pressure;BME280_temperature;BME280_humidity;BME280_pressure;Samples;Min_cycle;Max_cycle;Signal;HPM_P1;HPM_P2
2022/09/28 00:00:28;;;;;;;3.78;0.80;;;;;;;7.87;100.00;97063.53;5033706;28;20024;-69
2022/09/28 00:02:57;;;;;;;0.82;0.30;;;;;;;7.71;100.00;97056.09;5032906;28;20356;-69
2022/09/28 00:05:25;;;;;;;0.73;0.30;;;;;;;7.75;100.00;97043.81;5023264;28;20041;-72
2022/09/28 00:07:55;;;;;;;0.75;0.52;;;;;;;7.77;100.00;97064.06;5023995;28;20514;-69
2022/09/28 00:10:21;;;;;;;0.43;0.40;;;;;;;7.65;100.00;97033.59;5031176;28;20418;-69
2022/09/28 00:12:51;;;;;;;1.27;0.63;;;;;;;7.76;100.00;97048.16;5019395;28;20030;-68
2022/09/28 00:15:17;;;;;;;1.20;0.43;;;;;;;7.71;100.00;97050.72;5025780;28;20026;-68
2022/09/28 00:17:46;;;;;;;2.55;0.60;;;;;;;7.59;100.00;97029.94;5031467;28;20098;-70
2022/09/28 00:20:12;;;;;;;1.13;0.57;;;;;;;7.59;100.00;97015.66;5018434;28;20375;-68
2022/09/28 00:22:38;;;;;;;1.00;0.63;;;;;;;7.55;100.00;97001.84;5023625;28;20072;-72
2022/09/28 00:25:05;;;;;;;1.48;0.50;;;;;;;7.77;100.00;97031.75;5027570;28;20053;-70
2022/09/28 00:27:30;;;;;;;0.60;0.40;;;;;;;7.67;100.00;97002.69;5025503;28;20472;-69
2022/09/28 00:29:56;;;;;;;1.10;0.50;;;;;;;7.84;100.00;97023.59;5027392;28;20034;-69
2022/09/28 00:32:23;;;;;;;1.52;0.55;;;;;;;7.72;100.00;96995.81;5030264;28;20100;-69
2022/09/28 00:34:49;;;;;;;3.88;0.80;;;;;;;7.77;100.00;97015.59;5026953;28;20475;-71
2022/09/28 00:37:15;;;;;;;2.83;0.55;;;;;;;7.66;100.00;96993.00;5027603;28;20426;-71
2022/09/28 00:39:40;;;;;;;1.30;0.60;;;;;;;7.75;100.00;97006.94;5022198;28;20035;-69
2022/09/28 00:42:19;;;;;;;0.80;0.60;;;;;;;7.80;100.00;97000.88;5027301;28;20576;-69
2022/09/28 00:44:48;;;;;;;1.48;0.70;;;;;;;7.79;100.00;96999.25;5024197;28;20053;-69
2022/09/28 00:47:24;;;;;;;3.30;0.70;;;;;;;7.80;100.00;96990.91;5013841;28;20110;-69
2022/09/28 00:49:55;;;;;;;1.02;0.50;;;;;;;7.89;100.00;96992.25;5022891;28;20072;-68
2022/09/28 00:52:27;;;;;;;4.55;0.80;;;;;;;7.83;100.00;96993.19;5033252;28;20017;-68
2022/09/28 00:54:54;;;;;;;0.98;0.70;;;;;;;7.83;100.00;96995.88;5031512;28;20029;-68
2022/09/28 00:57:21;;;;;;;0.77;0.40;;;;;;;7.96;100.00;96986.75;5033045;28;20108;-71
2022/09/28 00:59:48;;;;;;;2.65;0.75;;;;;;;7.87;100.00;96967.41;5033969;28;20103;-68
2022/09/28 01:02:13;;;;;;;0.95;0.47;;;;;;;7.98;100.00;96973.06;5031338;28;20109;-71
2022/09/28 01:04:39;;;;;;;0.70;0.60;;;;;;;8.00;100.00;96969.06;5020363;28;20109;-68
2022/09/28 01:07:07;;;;;;;4.07;0.50;;;;;;;7.99;100.00;96972.84;5033382;28;20136;-69
2022/09/28 01:09:35;;;;;;;1.20;0.60;;;;;;;7.90;100.00;96949.97;5032688;28;20026;-68
2022/09/28 01:12:01;;;;;;;1.65;0.73;;;;;;;8.04;100.00;96964.88;5017342;28;20056;-72
2022/09/28 01:14:26;;;;;;;2.00;0.68;;;;;;;8.01;100.00;96957.25;5026976;28;20064;-73
2022/09/28 01:17:06;;;;;;;1.75;0.60;;;;;;;7.83;100.00;96936.63;5022498;28;20018;-71
2022/09/28 01:19:37;;;;;;;2.63;0.70;;;;;;;7.98;100.00;96949.63;5025700;28;20554;-67
2022/09/28 01:22:21;;;;;;;3.10;0.75;;;;;;;8.01;100.00;96946.47;5026659;28;20398;-68
2022/09/28 01:24:54;;;;;;;1.45;0.73;;;;;;;7.98;100.00;96930.78;5025952;28;20102;-67
2022/09/28 01:27:31;;;;;;;0.75;0.55;;;;;;;7.88;100.00;96909.81;5024934;28;20030;-67
2022/09/28 01:30:04;;;;;;;0.98;0.47;;;;;;;8.00;100.00;96920.59;5026688;28;20115;-67
2022/09/28 01:33:02;;;;;;;1.20;0.57;;;;;;;8.01;100.00;96907.94;5029943;28;20031;-66
2022/09/28 01:35:50;;;;;;;1.67;0.60;;;;;;;7.88;100.00;96887.47;5028843;28;20029;-66
2022/09/28 01:38:20;;;;;;;1.33;0.60;;;;;;;8.07;100.00;96896.28;5030967;28;20112;-68
2022/09/28 01:40:47;;;;;;;1.38;0.50;;;;;;;8.00;100.00;96885.59;5026655;28;20541;-69
2022/09/28 01:43:23;;;;;;;1.55;0.60;;;;;;;8.08;100.00;96890.63;5024687;28;20021;-69
2022/09/28 01:45:58;;;;;;;2.17;0.75;;;;;;;8.04;100.00;96875.16;5029160;28;20499;-71
2022/09/28 01:48:37;;;;;;;2.13;0.45;;;;;;;8.06;100.00;96879.25;5029955;28;20025;-68
2022/09/28 01:51:09;;;;;;;3.80;0.68;;;;;;;8.00;100.00;96863.25;5023563;28;20045;-69
2022/09/28 01:53:40;;;;;;;1.30;0.40;;;;;;;8.11;100.00;96871.31;5025869;28;20120;-70
2022/09/28 01:56:12;;;;;;;0.93;0.65;;;;;;;8.10;100.00;96863.47;5027422;28;20032;-69
2022/09/28 01:58:43;;;;;;;1.80;0.50;;;;;;;8.13;100.00;96855.72;5021597;28;20037;-69
2022/09/28 02:01:15;;;;;;;1.67;0.65;;;;;;;8.17;100.00;96857.94;5026330;28;20025;-68
2022/09/28 02:03:49;;;;;;;0.65;0.50;;;;;;;8.20;100.00;96857.47;5022385;28;20037;-68
2022/09/28 02:06:26;;;;;;;5.38;0.57;;;;;;;8.18;100.00;96846.94;5032083;28;20064;-68
2022/09/28 02:09:02;;;;;;;5.38;0.88;;;;;;;8.10;100.00;96833.84;5029052;28;20044;-69
2022/09/28 02:11:27;;;;;;;1.05;0.52;;;;;;;8.06;100.00;96820.00;5028153;28;20108;-70
2022/09/28 02:14:03;;;;;;;1.27;0.45;;;;;;;8.14;100.00;96829.59;5020231;28;20539;-73
2022/09/28 02:16:28;;;;;;;0.82;0.50;;;;;;;8.18;100.00;96828.09;5014175;28;20024;-68
2022/09/28 02:18:53;;;;;;;2.45;0.70;;;;;;;8.06;100.00;96809.25;5025583;28;20110;-70
2022/09/28 02:21:28;;;;;;;2.97;0.82;;;;;;;8.21;100.00;96830.31;5030501;28;20043;-69
2022/09/28 02:24:01;;;;;;;1.85;0.70;;;;;;;8.25;100.00;96817.19;5024484;28;20032;-68
2022/09/28 02:26:33;;;;;;;2.00;0.70;;;;;;;8.24;100.00;96826.31;5026539;28;20064;-69
2022/09/28 02:28:58;;;;;;;3.35;0.90;;;;;;;8.22;100.00;96806.88;5034848;28;20026;-66
2022/09/28 02:31:25;;;;;;;5.85;0.90;;;;;;;8.24;100.00;96816.38;5027952;28;20025;-70
2022/09/28 02:33:53;;;;;;;1.63;0.73;;;;;;;8.22;100.00;96813.09;5030457;28;20017;-69
2022/09/28 02:36:19;;;;;;;5.35;1.00;;;;;;;8.23;100.00;96822.00;5023695;28;20037;-69
2022/09/28 02:38:44;;;;;;;4.97;0.70;;;;;;;8.23;100.00;96811.22;5030488;28;20037;-70
2022/09/28 02:41:38;;;;;;;5.30;0.98;;;;;;;8.27;100.00;96815.06;5037801;28;20394;-69
2022/09/28 02:44:41;;;;;;;4.32;0.70;;;;;;;8.35;100.00;96812.00;5024612;28;20079;-71
2022/09/28 02:47:12;;;;;;;4.07;0.93;;;;;;;8.41;100.00;96803.03;5024014;28;20034;-70
2022/09/28 02:50:15;;;;;;;2.05;0.70;;;;;;;8.37;100.00;96801.00;5029606;28;20059;-71
2022/09/28 02:53:05;;;;;;;5.18;1.00;;;;;;;8.39;100.00;96804.28;4944825;28;20055;-70
2022/09/28 02:55:53;;;;;;;6.03;1.38;;;;;;;8.33;100.00;96771.84;4948557;28;20118;-70
2022/09/28 02:58:37;;;;;;;7.20;1.25;;;;;;;8.29;100.00;96780.63;5001980;28;20617;-71
2022/09/28 03:01:25;;;;;;;1.65;1.02;;;;;;;8.43;100.00;96800.88;5029915;28;20044;-69
2022/09/28 03:04:03;;;;;;;3.67;1.10;;;;;;;8.45;100.00;96796.06;5019700;28;20518;-68
2022/09/28 03:06:40;;;;;;;5.65;1.10;;;;;;;8.49;100.00;96802.63;5021083;28;20044;-69
2022/09/28 03:09:20;;;;;;;3.88;0.80;;;;;;;8.47;100.00;96807.44;5027539;28;20096;-69
2022/09/28 03:11:51;;;;;;;8.77;0.95;;;;;;;8.48;100.00;96794.78;5027311;28;20108;-69
2022/09/28 03:14:17;;;;;;;5.88;1.17;;;;;;;8.56;100.00;96806.00;5019216;28;20112;-69
2022/09/28 03:16:44;;;;;;;5.15;1.08;;;;;;;8.56;100.00;96811.38;5028865;28;20037;-68
2022/09/28 03:19:11;;;;;;;9.25;1.38;;;;;;;8.58;100.00;96821.94;5031505;28;20114;-70
2022/09/28 03:21:37;;;;;;;6.15;1.02;;;;;;;8.56;100.00;96808.69;5031710;28;20479;-70
2022/09/28 03:24:03;;;;;;;5.40;1.63;;;;;;;8.56;100.00;96824.84;5030543;28;20036;-69
2022/09/28 03:26:28;;;;;;;3.20;0.90;;;;;;;8.60;100.00;96822.53;5031846;28;20018;-70
2022/09/28 03:28:54;;;;;;;2.00;0.88;;;;;;;8.71;100.00;96828.94;5038754;28;20036;-69
2022/09/28 03:31:19;;;;;;;1.63;0.93;;;;;;;8.72;100.00;96819.78;5035935;28;20043;-70
2022/09/28 03:33:44;;;;;;;3.85;0.95;;;;;;;8.72;100.00;96817.91;5030100;28;20033;-69
2022/09/28 03:36:09;;;;;;;2.78;0.70;;;;;;;8.70;100.00;96814.63;5039568;28;20055;-69
2022/09/28 03:38:35;;;;;;;1.77;0.60;;;;;;;8.70;100.00;96814.63;5035590;28;20398;-69
2022/09/28 03:41:00;;;;;;;0.98;0.40;;;;;;;8.60;100.00;96806.34;5030191;28;20029;-69
2022/09/28 03:43:27;;;;;;;2.22;0.55;;;;;;;8.67;100.00;96808.88;5025149;28;20057;-71
2022/09/28 03:45:59;;;;;;;2.65;0.70;;;;;;;8.44;100.00;96782.84;5026240;28;20014;-72
2022/09/28 03:48:27;;;;;;;2.40;0.65;;;;;;;8.49;100.00;96799.94;5025261;28;20053;-73
2022/09/28 03:50:58;;;;;;;2.75;0.30;;;;;;;8.41;100.00;96796.78;5024136;28;20850;-73
2022/09/28 03:53:24;;;;;;;3.33;0.40;;;;;;;8.53;100.00;96798.38;5030287;28;20152;-73
2022/09/28 03:55:52;;;;;;;2.13;0.38;;;;;;;8.34;100.00;96775.34;5026464;28;20037;-74
2022/09/28 03:58:20;;;;;;;3.25;0.50;;;;;;;8.27;100.00;96755.81;5028088;28;20029;-72
2022/09/28 04:00:47;;;;;;;2.47;1.35;;;;;;;8.28;100.00;96768.22;5031302;28;20139;-70
2022/09/28 04:03:12;;;;;;;3.17;0.30;;;;;;;8.38;100.00;96795.34;5029028;28;20052;-70
2022/09/28 04:05:38;;;;;;;2.58;0.40;;;;;;;8.38;100.00;96799.94;5032051;28;20102;-72
2022/09/28 04:08:03;;;;;;;1.90;0.60;;;;;;;8.33;100.00;96811.41;5023175;28;20033;-71
2022/09/28 04:10:28;;;;;;;2.72;0.55;;;;;;;8.20;100.00;96801.75;5030463;28;20025;-71
2022/09/28 04:12:55;;;;;;;1.35;0.57;;;;;;;8.05;100.00;96778.00;5024534;28;20035;-71
2022/09/28 04:15:24;;;;;;;2.65;1.00;;;;;;;8.34;100.00;96827.34;5026842;28;20509;-70
2022/09/28 04:17:50;;;;;;;3.20;0.83;;;;;;;8.14;100.00;96794.59;5026636;28;20030;-69
2022/09/28 04:20:15;;;;;;;1.27;0.40;;;;;;;8.31;100.00;96825.16;5042217;28;20041;-71
2022/09/28 04:22:41;;;;;;;4.70;0.77;;;;;;;8.21;100.00;96816.03;5027469;28;20030;-70
2022/09/28 04:25:06;;;;;;;4.05;0.85;;;;;;;8.22;100.00;96821.16;5024218;28;20030;-71
2022/09/28 04:30:16;;;;;;;3.95;0.70;;;;;;;8.26;100.00;96819.66;5028113;28;20441;-70
2022/09/28 04:32:42;;;;;;;3.38;0.80;;;;;;;8.22;100.00;96817.66;5027919;28;20028;-75
2022/09/28 04:35:10;;;;;;;3.78;0.68;;;;;;;8.18;100.00;96822.72;5026970;28;20037;-75
2022/09/28 04:37:35;;;;;;;5.25;0.60;;;;;;;8.18;100.00;96821.91;5027253;28;20032;-77
2022/09/28 04:40:00;;;;;;;4.35;0.70;;;;;;;8.12;100.00;96812.84;5029043;28;20025;-74
2022/09/28 04:42:26;;;;;;;6.57;1.00;;;;;;;8.22;100.00;96829.25;5026730;28;20080;-70
2022/09/28 04:44:51;;;;;;;12.55;2.50;;;;;;;8.09;100.00;96806.06;5024530;28;20021;-72
2022/09/28 04:47:16;;;;;;;2.63;1.70;;;;;;;8.21;100.00;96821.41;5026487;28;20075;-71
2022/09/28 04:49:41;;;;;;;4.78;1.27;;;;;;;8.23;100.00;96827.41;5029930;28;20041;-71
2022/09/28 04:52:07;;;;;;;6.13;2.08;;;;;;;8.11;100.00;96816.63;5031100;28;20075;-75
2022/09/28 04:54:32;;;;;;;8.07;2.78;;;;;;;8.10;100.00;96818.50;5031780;28;20040;-72
2022/09/28 04:56:58;;;;;;;3.42;1.60;;;;;;;8.01;100.00;96801.06;5029236;28;20033;-70
2022/09/28 04:59:23;;;;;;;7.57;1.10;;;;;;;8.13;100.00;96820.72;5028174;28;20391;-72
2022/09/28 05:01:48;;;;;;;2.50;1.10;;;;;;;8.15;100.00;96831.28;5028060;28;20478;-69
2022/09/28 05:04:14;;;;;;;5.97;0.88;;;;;;;8.19;100.00;96834.28;5028133;28;20028;-68
2022/09/28 05:06:39;;;;;;;3.88;1.50;;;;;;;8.15;100.00;96823.19;5020898;28;21077;-67
2022/09/28 05:09:05;;;;;;;3.47;1.30;;;;;;;8.11;100.00;96827.41;5028073;28;20025;-73
2022/09/28 05:11:30;;;;;;;3.53;0.80;;;;;;;8.17;100.00;96821.06;5030579;28;20467;-74
2022/09/28 05:13:56;;;;;;;3.97;1.20;;;;;;;8.16;100.00;96811.34;5027460;28;20029;-72
2022/09/28 05:16:21;;;;;;;10.80;1.10;;;;;;;8.13;100.00;96814.50;5028530;28;20068;-74
2022/09/28 05:18:46;;;;;;;3.33;1.45;;;;;;;7.89;100.00;96790.31;5035535;28;20493;-71
2022/09/28 05:21:13;;;;;;;4.80;1.65;;;;;;;8.12;100.00;96826.31;5025672;28;20479;-72
2022/09/28 05:23:39;;;;;;;3.72;1.20;;;;;;;8.13;100.00;96826.09;5028287;28;20025;-68
2022/09/28 05:26:05;;;;;;;7.07;1.20;;;;;;;8.13;100.00;96839.56;5026219;28;20121;-68
2022/09/28 05:28:32;;;;;;;2.78;1.13;;;;;;;8.23;100.00;96844.38;5023860;28;20049;-69
2022/09/28 05:31:02;;;;;;;2.75;1.15;;;;;;;8.08;100.00;96814.41;5027403;28;20037;-72
2022/09/28 05:33:28;;;;;;;3.35;1.13;;;;;;;8.09;100.00;96830.31;5029175;28;20044;-74
2022/09/28 05:35:53;;;;;;;2.88;1.30;;;;;;;7.97;100.00;96805.28;5030117;28;20032;-75
2022/09/28 05:38:19;;;;;;;5.03;1.77;;;;;;;8.19;100.00;96858.53;5023930;28;20025;-77
2022/09/28 05:40:44;;;;;;;4.47;1.35;;;;;;;8.15;100.00;96852.81;5028378;28;20116;-75
2022/09/28 05:43:09;;;;;;;5.55;1.55;;;;;;;8.22;100.00;96836.50;5031106;28;20105;-73
2022/09/28 05:45:35;;;;;;;10.55;1.40;;;;;;;8.10;100.00;96829.28;5029160;28;20506;-74
2022/09/28 05:48:00;;;;;;;4.57;1.92;;;;;;;7.95;100.00;96807.38;5028735;28;20064;-75
2022/09/28 05:50:26;;;;;;;6.38;2.92;;;;;;;8.19;100.00;96828.91;5026201;28;20026;-74
2022/09/28 05:53:03;;;;;;;5.85;2.78;;;;;;;8.29;100.00;96829.13;5021604;28;20116;-73
2022/09/28 05:55:29;;;;;;;5.30;2.05;;;;;;;8.26;100.00;96837.69;5029431;28;20022;-69
2022/09/28 05:57:58;;;;;;;6.53;2.20;;;;;;;8.16;100.00;96826.69;5028392;28;20022;-71
2022/09/28 06:00:25;;;;;;;6.22;2.13;;;;;;;8.15;100.00;96816.97;5022931;28;20457;-70
2022/09/28 06:02:58;;;;;;;6.28;1.65;;;;;;;8.20;100.00;96819.75;5026118;28;20036;-70
2022/09/28 06:05:24;;;;;;;7.65;1.60;;;;;;;8.28;100.00;96832.91;5029117;28;20047;-70
2022/09/28 06:07:50;;;;;;;9.10;2.10;;;;;;;8.40;100.00;96857.94;5027516;28;20029;-68
2022/09/28 06:10:15;;;;;;;3.08;1.83;;;;;;;8.28;100.00;96860.66;5028490;28;20028;-70
2022/09/28 06:12:41;;;;;;;10.68;2.00;;;;;;;8.25;100.00;96863.81;5027115;28;20100;-71
2022/09/28 06:15:06;;;;;;;4.82;2.10;;;;;;;8.16;100.00;96845.53;5025437;28;20207;-74
2022/09/28 06:17:32;;;;;;;3.65;1.88;;;;;;;8.36;100.00;96875.63;5025895;28;20025;-67
2022/09/28 06:19:57;;;;;;;6.53;1.60;;;;;;;8.34;100.00;96869.66;5023938;28;20078;-68
2022/09/28 06:22:23;;;;;;;5.43;1.83;;;;;;;8.38;100.00;96876.19;5023056;28;20026;-69
2022/09/28 06:24:48;;;;;;;7.65;2.00;;;;;;;8.42;100.00;96880.09;5024645;28;20032;-70
2022/09/28 06:27:13;;;;;;;5.25;2.20;;;;;;;8.37;100.00;96890.72;5031297;28;20022;-72
2022/09/28 06:29:38;;;;;;;3.15;1.55;;;;;;;8.37;100.00;96871.88;5029839;28;20037;-71
2022/09/28 06:32:04;;;;;;;5.22;1.55;;;;;;;8.33;100.00;96847.28;5025831;28;20383;-72
2022/09/28 06:34:29;;;;;;;5.68;1.98;;;;;;;8.48;100.00;96876.44;5021631;28;20026;-73
2022/09/28 06:36:54;;;;;;;7.43;2.45;;;;;;;8.46;100.00;96867.78;5033403;28;20405;-76
2022/09/28 06:39:19;;;;;;;3.88;2.38;;;;;;;8.46;100.00;96862.41;5029146;28;20070;-75
2022/09/28 06:41:45;;;;;;;10.77;2.00;;;;;;;8.67;100.00;96881.66;5025925;28;20036;-67
2022/09/28 06:44:10;;;;;;;4.47;1.63;;;;;;;8.62;100.00;96882.41;5023373;28;20108;-69
2022/09/28 06:46:37;;;;;;;2.83;1.40;;;;;;;8.60;100.00;96881.00;5027058;28;20038;-69
2022/09/28 06:49:04;;;;;;;4.95;1.85;;;;;;;8.59;100.00;96900.91;5032025;28;20104;-69
2022/09/28 06:51:29;;;;;;;4.45;2.38;;;;;;;8.58;100.00;96900.09;5031462;28;20021;-69
2022/09/28 06:53:55;;;;;;;8.02;2.58;;;;;;;8.52;100.00;96907.25;5033810;28;20029;-69
2022/09/28 06:56:20;;;;;;;3.88;1.83;;;;;;;8.47;100.00;96890.97;5018948;28;20395;-69
2022/09/28 06:58:46;;;;;;;8.27;2.00;;;;;;;8.56;100.00;96916.50;5020740;28;20026;-68
2022/09/28 07:01:11;;;;;;;9.32;2.17;;;;;;;8.34;100.00;96845.41;5031598;28;20387;-67
2022/09/28 07:03:38;;;;;;;7.45;2.50;;;;;;;8.71;100.00;96904.41;5023338;28;20037;-70
2022/09/28 07:06:04;;;;;;;5.47;2.17;;;;;;;8.87;100.00;96911.75;5023184;28;20021;-71
2022/09/28 07:08:29;;;;;;;2.92;1.60;;;;;;;8.91;100.00;96901.31;5018129;28;20043;-73
2022/09/28 07:10:55;;;;;;;5.90;2.00;;;;;;;8.99;100.00;96912.53;5031567;28;20548;-72
2022/09/28 07:13:22;;;;;;;4.43;2.13;;;;;;;9.17;100.00;96910.72;5029831;28;20029;-69
2022/09/28 07:15:52;;;;;;;4.53;1.92;;;;;;;8.91;100.00;96910.22;5029864;28;20025;-68
2022/09/28 07:18:17;;;;;;;6.03;2.13;;;;;;;9.03;100.00;96917.47;5034281;28;20112;-66
2022/09/28 07:20:42;;;;;;;5.03;2.05;;;;;;;8.88;100.00;96894.53;5032508;28;20116;-74
2022/09/28 07:23:09;;;;;;;5.50;2.17;;;;;;;9.07;100.00;96915.94;5031665;28;20395;-72
2022/09/28 07:25:35;;;;;;;3.95;2.33;;;;;;;9.10;100.00;96904.66;5021894;28;20091;-72
2022/09/28 07:28:03;;;;;;;6.47;2.70;;;;;;;9.12;100.00;96903.34;5028125;28;20060;-71
2022/09/28 07:30:32;;;;;;;4.13;2.53;;;;;;;9.08;100.00;96898.66;5028806;28;20383;-70
2022/09/28 07:32:58;;;;;;;7.55;3.28;;;;;;;9.21;100.00;96917.28;5029202;28;20021;-70
2022/09/28 07:35:23;;;;;;;10.95;3.38;;;;;;;9.12;100.00;96929.53;5026400;28;20038;-67
2022/09/28 07:37:58;;;;;;;6.97;2.60;;;;;;;9.23;100.00;96939.44;5025651;28;20029;-66
2022/09/28 07:43:07;;;;;;;21.63;8.40;;;;;;;9.38;100.00;96937.03;5030444;28;20052;-66
2022/09/28 07:45:35;;;;;;;28.65;8.98;;;;;;;9.51;100.00;96940.47;5025809;28;20033;-71
2022/09/28 07:48:01;;;;;;;11.30;4.25;;;;;;;9.66;100.00;96946.16;5030005;28;20030;-69
2022/09/28 07:50:27;;;;;;;9.82;2.30;;;;;;;9.65;100.00;96941.81;5027056;28;20033;-68
2022/09/28 07:52:52;;;;;;;6.75;2.10;;;;;;;9.41;100.00;96938.44;5029303;28;20029;-67
2022/09/28 07:55:17;;;;;;;8.38;4.00;;;;;;;9.69;100.00;96953.75;5024979;28;20057;-67
2022/09/28 07:57:45;;;;;;;9.05;4.50;;;;;;;9.59;100.00;96934.72;5038671;28;20391;-74
2022/09/28 08:00:12;;;;;;;8.50;2.90;;;;;;;9.99;100.00;96950.78;5037449;28;20017;-66
2022/09/28 08:02:37;;;;;;;6.25;2.40;;;;;;;10.11;100.00;96958.78;5038091;28;20041;-71
2022/09/28 08:05:03;;;;;;;4.85;2.53;;;;;;;10.35;100.00;96955.94;5031436;28;20095;-66
2022/09/28 08:07:28;;;;;;;6.78;2.78;;;;;;;10.51;100.00;96952.44;5030182;28;20029;-69
2022/09/28 08:09:54;;;;;;;5.00;2.30;;;;;;;10.20;100.00;96943.00;5031674;28;20018;-69
2022/09/28 08:12:19;;;;;;;3.90;1.63;;;;;;;10.92;100.00;96956.47;5030760;28;20545;-70
2022/09/28 08:14:46;;;;;;;6.60;2.10;;;;;;;10.75;100.00;96942.22;5027142;28;20487;-69
2022/09/28 08:17:11;;;;;;;7.78;1.50;;;;;;;10.90;100.00;96945.13;5030609;28;20477;-74
2022/09/28 08:22:20;;;;;;;3.45;1.23;;;;;;;10.45;100.00;96958.81;5028249;28;20558;-74
2022/09/28 08:24:47;;;;;;;4.50;1.83;;;;;;;10.44;100.00;96958.00;5023513;28;20096;-72
2022/09/28 08:27:14;;;;;;;4.35;1.67;;;;;;;10.85;100.00;96963.19;5031120;28;20025;-69
2022/09/28 08:29:40;;;;;;;5.95;1.80;;;;;;;11.25;100.00;96951.22;5028395;28;20037;-69
2022/09/28 08:32:07;;;;;;;4.70;1.35;;;;;;;11.17;100.00;96961.41;5032842;28;20017;-69
2022/09/28 08:34:37;;;;;;;6.53;1.70;;;;;;;11.80;100.00;96956.41;5026324;28;20025;-72
2022/09/28 08:37:03;;;;;;;3.38;1.20;;;;;;;12.02;100.00;96956.34;5024884;28;20499;-72
2022/09/28 08:39:29;;;;;;;3.65;1.08;;;;;;;13.08;100.00;96951.88;5030200;28;20033;-71
2022/09/28 08:42:14;;;;;;;6.05;1.30;;;;;;;12.84;100.00;96954.22;5067064;22;20124;-71
2022/09/28 08:44:56;;;;;;;1.90;0.90;;;;;;;13.47;100.00;96948.00;5046852;28;20075;-73
2022/09/28 08:50:17;;;;;;;6.20;1.25;;;;;;;13.75;100.00;96954.84;5046179;28;20035;-67
2022/09/28 08:52:47;;;;;;;4.75;1.10;;;;;;;13.28;100.00;96977.50;5047932;28;20041;-68
2022/09/28 08:55:24;;;;;;;5.05;1.00;;;;;;;12.92;100.00;96967.28;5040181;28;20116;-66
2022/09/28 08:58:04;;;;;;;7.03;1.20;;;;;;;13.83;100.00;96967.88;5048488;28;20024;-67
2022/09/28 09:00:47;;;;;;;2.17;0.90;;;;;;;13.74;97.58;96972.22;5061548;28;20021;-67
2022/09/28 09:03:16;;;;;;;3.95;1.20;;;;;;;14.17;98.80;96968.22;5030312;28;20032;-68
2022/09/28 09:05:55;;;;;;;4.95;1.02;;;;;;;14.35;95.06;96983.16;5040565;28;20065;-72
2022/09/28 09:08:25;;;;;;;4.00;1.02;;;;;;;14.93;94.43;96982.03;5037978;28;20040;-70
2022/09/28 09:10:58;;;;;;;2.47;1.10;;;;;;;14.74;90.78;96981.81;5045183;28;20033;-69
2022/09/28 09:13:56;;;;;;;4.95;1.05;;;;;;;14.19;86.50;96985.06;5038241;28;20472;-68
2022/09/28 09:16:29;;;;;;;5.97;1.15;;;;;;;13.88;92.37;96991.56;5022263;28;20028;-70
2022/09/28 09:19:08;;;;;;;3.92;1.73;;;;;;;13.53;98.00;96993.09;5028613;28;20368;-71
2022/09/28 09:21:46;;;;;;;2.20;1.10;;;;;;;13.30;97.76;96981.59;5021863;28;20033;-72
2022/09/28 09:24:17;;;;;;;5.70;2.00;;;;;;;13.43;94.48;97001.22;5029427;28;20037;-68
2022/09/28 09:26:43;;;;;;;3.25;1.25;;;;;;;13.67;93.00;96991.50;5031747;28;20033;-71
2022/09/28 09:29:26;;;;;;;2.70;1.02;;;;;;;13.99;90.96;97001.34;5031850;28;20052;-68
2022/09/28 09:32:06;;;;;;;3.83;1.08;;;;;;;14.11;89.96;97006.56;5028598;28;20405;-68
2022/09/28 09:34:40;;;;;;;4.88;1.20;;;;;;;14.28;86.37;97001.69;5020737;28;20991;-69
2022/09/28 09:37:23;;;;;;;3.05;1.00;;;;;;;14.76;85.17;97009.56;5018990;28;20409;-69
2022/09/28 09:40:07;;;;;;;2.75;1.00;;;;;;;13.67;82.52;97013.25;5031464;28;20055;-68
2022/09/28 09:42:47;;;;;;;3.53;1.10;;;;;;;13.96;83.94;97015.50;5032381;28;20033;-68
2022/09/28 09:45:40;;;;;;;3.90;0.82;;;;;;;14.22;84.90;97009.00;5026086;28;20024;-67
2022/09/28 09:48:11;;;;;;;2.55;0.90;;;;;;;15.08;78.52;97014.69;5023955;28;20032;-68
2022/09/28 09:50:47;;;;;;;5.20;1.38;;;;;;;16.03;74.59;97018.41;5021068;28;20100;-68
2022/09/28 09:53:37;;;;;;;3.35;0.90;;;;;;;15.87;73.90;97026.66;5020966;28;20092;-72
2022/09/28 09:56:13;;;;;;;3.97;1.30;;;;;;;16.21;71.16;97031.38;5030284;28;20494;-72
2022/09/28 09:58:56;;;;;;;4.28;1.27;;;;;;;16.23;68.36;97018.25;5025996;28;20129;-73
2022/09/28 10:01:37;;;;;;;0.80;0.60;;;;;;;17.27;65.67;97020.63;5024679;28;20032;-73
2022/09/28 10:04:11;;;;;;;1.85;0.70;;;;;;;15.25;72.83;97017.09;5021976;28;20029;-73
2022/09/28 10:06:38;;;;;;;7.25;1.10;;;;;;;14.72;73.76;97036.50;5030254;28;20036;-68
2022/09/28 10:09:09;;;;;;;5.43;1.67;;;;;;;14.16;75.85;97036.47;5019290;28;20063;-68
2022/09/28 10:11:42;;;;;;;4.47;1.23;;;;;;;14.54;76.60;97031.63;5031053;28;20040;-68
2022/09/28 10:14:12;;;;;;;2.17;1.10;;;;;;;14.44;76.96;97033.25;5032869;28;20033;-68
2022/09/28 10:16:38;;;;;;;4.22;1.25;;;;;;;14.43;77.88;97037.03;5032712;28;20052;-68
2022/09/28 10:19:03;;;;;;;2.40;1.00;;;;;;;14.01;76.73;97034.53;5041702;28;20040;-68
2022/09/28 10:21:29;;;;;;;4.30;1.15;;;;;;;14.20;78.55;97041.13;5046063;28;20040;-68
2022/09/28 10:23:59;;;;;;;4.65;1.80;;;;;;;14.54;79.00;97026.19;5048014;28;20032;-68
2022/09/28 10:26:33;;;;;;;4.28;1.65;;;;;;;14.15;77.38;97026.69;5041236;28;20044;-68
2022/09/28 10:29:02;;;;;;;4.82;1.67;;;;;;;15.02;75.64;97027.50;5037704;28;20386;-69
2022/09/28 10:31:36;;;;;;;4.68;0.98;;;;;;;15.27;73.08;97028.50;5040688;28;20429;-67
2022/09/28 10:34:03;;;;;;;5.75;1.40;;;;;;;16.28;69.17;97026.41;5045789;28;20021;-68
2022/09/28 10:36:37;;;;;;;3.92;0.80;;;;;;;16.40;69.27;97029.63;5038387;28;20030;-67
2022/09/28 10:39:04;;;;;;;4.97;0.93;;;;;;;17.06;66.56;97035.63;5038308;28;20022;-68
2022/09/28 10:41:31;;;;;;;5.38;1.15;;;;;;;18.04;60.99;97025.16;5043331;28;20026;-68
2022/09/28 10:44:06;;;;;;;2.85;1.00;;;;;;;18.98;58.83;97010.53;5044610;28;20226;-68
2022/09/28 10:46:33;;;;;;;3.85;1.30;;;;;;;18.00;62.40;97026.88;5044159;28;20049;-68
2022/09/28 10:49:17;;;;;;;4.10;1.17;;;;;;;16.78;64.82;97035.31;5050230;28;20027;-68
2022/09/28 10:51:46;;;;;;;2.85;1.15;;;;;;;17.17;63.83;97028.94;5026368;28;20030;-67
2022/09/28 10:54:26;;;;;;;3.03;0.88;;;;;;;16.67;65.54;97035.69;5037770;28;20056;-68
2022/09/28 10:56:53;;;;;;;5.90;0.98;;;;;;;15.09;69.89;97036.22;5039992;28;20033;-67
2022/09/28 10:59:28;;;;;;;5.13;1.45;;;;;;;15.37;71.76;97028.50;5040529;28;20037;-67
2022/09/28 11:02:11;;;;;;;2.95;1.02;;;;;;;14.92;71.26;97038.41;5043022;28;20115;-68
2022/09/28 11:04:42;;;;;;;3.70;0.80;;;;;;;16.08;67.67;97026.53;5047222;28;20038;-69
2022/09/28 11:07:18;;;;;;;2.58;0.70;;;;;;;16.18;62.64;97029.22;5044828;28;20507;-69
2022/09/28 11:09:47;;;;;;;1.80;0.65;;;;;;;17.46;60.90;97028.09;5040442;28;20119;-70
2022/09/28 11:12:16;;;;;;;3.28;0.80;;;;;;;17.42;57.01;97027.03;5037941;28;20026;-71
2022/09/28 11:14:43;;;;;;;1.13;0.73;;;;;;;16.37;60.05;97018.44;5042634;28;20021;-71
2022/09/28 11:17:24;;;;;;;2.15;0.70;;;;;;;18.12;55.38;97010.00;5043541;28;20008;-70
2022/09/28 11:19:51;;;;;;;3.63;0.70;;;;;;;19.05;55.77;97013.72;5035819;28;20025;-70
2022/09/28 11:22:30;;;;;;;2.05;0.90;;;;;;;18.99;55.99;97014.94;5040146;28;20030;-70
2022/09/28 11:25:26;;;;;;;2.50;0.77;;;;;;;18.11;56.99;97011.94;5037672;28;20030;-69
2022/09/28 11:27:51;;;;;;;5.25;1.05;;;;;;;19.31;56.97;97015.16;5029016;28;20390;-69
2022/09/28 11:30:50;;;;;;;5.32;1.08;;;;;;;18.55;56.80;97016.19;5037488;28;20085;-69
2022/09/28 11:33:34;;;;;;;3.47;0.93;;;;;;;18.98;55.76;97005.06;5049819;28;20021;-72
2022/09/28 11:36:11;;;;;;;1.65;0.70;;;;;;;17.99;56.06;97024.44;5034504;28;20026;-71
2022/09/28 11:38:55;;;;;;;4.07;1.00;;;;;;;18.01;56.83;97020.28;5029080;28;20040;-72
2022/09/28 11:41:57;;;;;;;9.43;1.10;;;;;;;18.58;56.40;97003.84;5035208;28;20032;-71
2022/09/28 11:44:37;;;;;;;1.98;0.80;;;;;;;18.70;52.74;96992.38;5026480;28;20029;-73
2022/09/28 11:47:21;;;;;;;4.25;1.10;;;;;;;17.68;53.95;97008.38;5026030;28;20100;-73
2022/09/28 11:49:53;;;;;;;7.82;3.05;;;;;;;16.96;55.55;96998.28;5028847;28;20542;-72
2022/09/28 11:52:27;;;;;;;9.25;3.60;;;;;;;16.71;57.15;96996.56;5034485;28;20566;-72
2022/09/28 11:55:33;;;;;;;6.00;1.65;;;;;;;17.47;54.87;97002.34;5034614;28;20036;-74
2022/09/28 11:58:08;;;;;;;7.97;3.30;;;;;;;18.24;54.43;97009.56;4979473;28;20080;-73